sensor_id;sensor_type;location;lat;lon;timestamp;noise_LAeq;noise_LA_min;noise_LA_max;noise_LA01;noise_LA95
66747;Laerm;53658;50.742;10.864;2023-07-24T00:01:09;39.95;37.70;41.61;;
66747;Laerm;53658;50.742;10.864;2023-07-24T00:03:35;39.95;37.88;41.68;;
66747;Laerm;53658;50.742;10.864;2023-07-24T00:06:01;39.94;37.70;41.46;;
66747;Laerm;53658;50.742;10.864;2023-07-24T00:08:27;39.94;37.32;41.61;;
66747;Laerm;53658;50.742;10.864;2023-07-24T00:10:53;39.95;38.21;41.75;;
66747;Laerm;53658;50.742;10.864;2023-07-24T00:13:19;39.96;37.70;41.68;;
66747;Laerm;53658;50.742;10.864;2023-07-24T00:15:45;39.97;37.52;41.53;;
66747;Laerm;53658;50.742;10.864;2023-07-24T00:18:11;39.99;38.05;41.82;;
66747;Laerm;53658;50.742;10.864;2023-07-24T00:20:37;39.98;37.88;41.75;;
66747;Laerm;53658;50.742;10.864;2023-07-24T00:23:02;39.97;37.70;43.24;;
66747;Laerm;53658;50.742;10.864;2023-07-24T00:25:28;39.98;37.88;41.46;;
66747;Laerm;53658;50.742;10.864;2023-07-24T00:27:54;39.96;37.52;41.61;;
66747;Laerm;53658;50.742;10.864;2023-07-24T00:30:20;39.98;37.70;41.82;;
66747;Laerm;53658;50.742;10.864;2023-07-24T00:32:45;39.96;37.70;42.03;;
66747;Laerm;53658;50.742;10.864;2023-07-24T00:35:11;39.96;37.32;42.22;;
66747;Laerm;53658;50.742;10.864;2023-07-24T00:37:37;39.97;37.88;41.96;;
66747;Laerm;53658;50.742;10.864;2023-07-24T00:40:03;39.97;37.88;41.68;;
66747;Laerm;53658;50.742;10.864;2023-07-24T00:42:30;39.97;37.70;41.75;;
66747;Laerm;53658;50.742;10.864;2023-07-24T00:44:55;39.99;37.70;41.75;;
66747;Laerm;53658;50.742;10.864;2023-07-24T00:47:22;39.98;37.70;41.82;;
66747;Laerm;53658;50.742;10.864;2023-07-24T00:49:49;39.96;37.32;41.75;;
66747;Laerm;53658;50.742;10.864;2023-07-24T00:52:15;39.96;38.05;41.89;;
66747;Laerm;53658;50.742;10.864;2023-07-24T00:54:43;39.98;37.52;41.82;;
66747;Laerm;53658;50.742;10.864;2023-07-24T00:57:12;39.98;38.05;43.34;;
66747;Laerm;53658;50.742;10.864;2023-07-24T00:59:39;39.98;37.70;48.13;;
66747;Laerm;53658;50.742;10.864;2023-07-24T01:02:05;39.99;37.88;41.82;;
66747;Laerm;53658;50.742;10.864;2023-07-24T01:04:31;39.99;38.05;41.61;;
66747;Laerm;53658;50.742;10.864;2023-07-24T01:06:57;39.99;37.88;41.89;;
66747;Laerm;53658;50.742;10.864;2023-07-24T01:09:23;40.00;37.88;41.82;;
66747;Laerm;53658;50.742;10.864;2023-07-24T01:11:59;39.99;38.05;41.53;;
66747;Laerm;53658;50.742;10.864;2023-07-24T01:14:46;39.99;38.02;41.68;;
66747;Laerm;53658;50.742;10.864;2023-07-24T01:17:16;39.97;37.70;41.68;;
66747;Laerm;53658;50.742;10.864;2023-07-24T01:19:54;40.01;37.70;43.09;;
66747;Laerm;53658;50.742;10.864;2023-07-24T01:27:31;40.00;38.05;41.75;;
66747;Laerm;53658;50.742;10.864;2023-07-24T01:29:57;40.00;37.70;41.75;;
66747;Laerm;53658;50.742;10.864;2023-07-24T01:32:23;39.97;37.52;41.75;;
66747;Laerm;53658;50.742;10.864;2023-07-24T01:34:50;39.97;37.52;41.68;;
66747;Laerm;53658;50.742;10.864;2023-07-24T01:37:18;39.99;37.88;41.68;;
66747;Laerm;53658;50.742;10.864;2023-07-24T01:39:47;40.02;38.05;41.89;;
66747;Laerm;53658;50.742;10.864;2023-07-24T01:42:14;40.07;37.52;41.82;;
66747;Laerm;53658;50.742;10.864;2023-07-24T01:44:40;40.07;38.05;41.68;;
66747;Laerm;53658;50.742;10.864;2023-07-24T01:47:06;40.06;37.70;41.61;;
66747;Laerm;53658;50.742;10.864;2023-07-24T01:49:31;40.01;37.70;41.89;;
66747;Laerm;53658;50.742;10.864;2023-07-24T01:51:57;40.00;37.70;41.53;;
66747;Laerm;53658;50.742;10.864;2023-07-24T01:54:23;40.00;38.05;41.82;;
66747;Laerm;53658;50.742;10.864;2023-07-24T01:56:49;40.03;37.88;41.82;;
66747;Laerm;53658;50.742;10.864;2023-07-24T01:59:15;40.04;38.05;41.61;;
66747;Laerm;53658;50.742;10.864;2023-07-24T02:01:41;40.06;38.05;41.82;;
66747;Laerm;53658;50.742;10.864;2023-07-24T02:04:07;40.11;37.70;41.61;;
66747;Laerm;53658;50.742;10.864;2023-07-24T02:06:33;40.08;37.70;41.61;;
66747;Laerm;53658;50.742;10.864;2023-07-24T02:08:58;40.04;37.70;41.68;;
66747;Laerm;53658;50.742;10.864;2023-07-24T02:11:24;40.10;38.05;41.68;;
66747;Laerm;53658;50.742;10.864;2023-07-24T02:13:51;40.11;38.05;41.68;;
66747;Laerm;53658;50.742;10.864;2023-07-24T02:16:16;40.06;38.21;41.82;;
66747;Laerm;53658;50.742;10.864;2023-07-24T02:18:43;40.01;37.70;41.89;;
66747;Laerm;53658;50.742;10.864;2023-07-24T02:21:10;40.03;38.21;41.68;;
66747;Laerm;53658;50.742;10.864;2023-07-24T02:23:36;39.97;37.88;41.61;;
66747;Laerm;53658;50.742;10.864;2023-07-24T02:26:02;39.97;38.05;41.53;;
66747;Laerm;53658;50.742;10.864;2023-07-24T02:28:28;39.99;38.21;41.75;;
66747;Laerm;53658;50.742;10.864;2023-07-24T02:30:53;40.02;37.70;41.89;;
66747;Laerm;53658;50.742;10.864;2023-07-24T02:33:25;40.09;37.88;41.68;;
66747;Laerm;53658;50.742;10.864;2023-07-24T02:35:52;40.09;37.70;41.61;;
66747;Laerm;53658;50.742;10.864;2023-07-24T02:38:19;40.07;38.05;41.61;;
66747;Laerm;53658;50.742;10.864;2023-07-24T02:40:45;40.10;38.18;41.82;;
66747;Laerm;53658;50.742;10.864;2023-07-24T02:43:11;40.19;38.05;41.89;;
66747;Laerm;53658;50.742;10.864;2023-07-24T02:45:38;40.24;38.02;41.82;;
66747;Laerm;53658;50.742;10.864;2023-07-24T02:48:04;40.26;38.37;41.68;;
66747;Laerm;53658;50.742;10.864;2023-07-24T02:50:31;40.30;38.37;41.75;;
66747;Laerm;53658;50.742;10.864;2023-07-24T02:52:58;40.32;38.67;41.89;;
66747;Laerm;53658;50.742;10.864;2023-07-24T02:55:24;40.31;38.37;41.82;;
66747;Laerm;53658;50.742;10.864;2023-07-24T02:57:50;40.24;38.32;42.16;;
66747;Laerm;53658;50.742;10.864;2023-07-24T03:00:16;40.22;38.21;41.89;;
66747;Laerm;53658;50.742;10.864;2023-07-24T03:02:42;40.17;37.70;41.96;;
66747;Laerm;53658;50.742;10.864;2023-07-24T03:05:08;40.16;38.21;41.68;;
66747;Laerm;53658;50.742;10.864;2023-07-24T03:07:34;40.13;37.88;41.82;;
66747;Laerm;53658;50.742;10.864;2023-07-24T03:10:01;40.15;37.88;41.68;;
66747;Laerm;53658;50.742;10.864;2023-07-24T03:12:27;40.14;37.88;41.61;;
66747;Laerm;53658;50.742;10.864;2023-07-24T03:14:53;40.12;38.05;41.61;;
66747;Laerm;53658;50.742;10.864;2023-07-24T03:17:19;40.13;38.05;41.75;;
66747;Laerm;53658;50.742;10.864;2023-07-24T03:19:45;40.09;38.21;41.75;;
66747;Laerm;53658;50.742;10.864;2023-07-24T03:22:11;40.07;37.52;41.55;;
66747;Laerm;53658;50.742;10.864;2023-07-24T03:24:37;40.07;37.88;41.75;;
66747;Laerm;53658;50.742;10.864;2023-07-24T03:27:04;40.06;38.21;41.68;;
66747;Laerm;53658;50.742;10.864;2023-07-24T03:29:29;40.05;38.21;41.68;;
66747;Laerm;53658;50.742;10.864;2023-07-24T03:31:55;40.00;37.70;41.75;;
66747;Laerm;53658;50.742;10.864;2023-07-24T03:34:21;40.01;37.52;41.82;;
66747;Laerm;53658;50.742;10.864;2023-07-24T03:36:47;39.98;37.52;41.61;;
66747;Laerm;53658;50.742;10.864;2023-07-24T03:39:13;39.99;37.88;41.96;;
66747;Laerm;53658;50.742;10.864;2023-07-24T03:41:41;39.94;37.70;41.68;;
66747;Laerm;53658;50.742;10.864;2023-07-24T03:44:07;39.92;37.70;41.68;;
66747;Laerm;53658;50.742;10.864;2023-07-24T03:46:33;39.93;37.70;41.53;;
66747;Laerm;53658;50.742;10.864;2023-07-24T03:48:59;39.89;37.32;41.53;;
66747;Laerm;53658;50.742;10.864;2023-07-24T03:51:24;39.85;37.70;41.53;;
66747;Laerm;53658;50.742;10.864;2023-07-24T03:53:50;39.85;37.70;41.75;;
66747;Laerm;53658;50.742;10.864;2023-07-24T03:56:16;39.83;37.52;41.46;;
66747;Laerm;53658;50.742;10.864;2023-07-24T03:58:42;39.80;37.87;41.89;;
66747;Laerm;53658;50.742;10.864;2023-07-24T04:01:09;39.82;37.53;41.53;;
66747;Laerm;53658;50.742;10.864;2023-07-24T04:03:35;39.84;37.52;41.38;;
66747;Laerm;53658;50.742;10.864;2023-07-24T04:06:01;39.84;37.52;41.68;;
66747;Laerm;53658;50.742;10.864;2023-07-24T04:08:27;39.83;36.91;41.38;;
66747;Laerm;53658;50.742;10.864;2023-07-24T04:10:53;39.85;37.52;41.48;;
66747;Laerm;53658;50.742;10.864;2023-07-24T04:13:22;39.85;37.32;41.82;;
66747;Laerm;53658;50.742;10.864;2023-07-24T04:15:48;39.90;37.52;41.46;;
66747;Laerm;53658;50.742;10.864;2023-07-24T04:18:14;39.88;38.05;41.53;;
66747;Laerm;53658;50.742;10.864;2023-07-24T04:20:39;39.91;37.32;41.53;;
66747;Laerm;53658;50.742;10.864;2023-07-24T04:23:05;39.88;37.52;41.46;;
66747;Laerm;53658;50.742;10.864;2023-07-24T04:25:31;39.90;38.05;41.61;;
66747;Laerm;53658;50.742;10.864;2023-07-24T04:27:57;39.90;37.32;41.89;;
66747;Laerm;53658;50.742;10.864;2023-07-24T04:30:23;39.88;37.70;41.61;;
66747;Laerm;53658;50.742;10.864;2023-07-24T04:32:49;39.87;37.88;41.53;;
66747;Laerm;53658;50.742;10.864;2023-07-24T04:35:15;39.88;37.88;41.82;;
66747;Laerm;53658;50.742;10.864;2023-07-24T04:37:41;39.86;37.70;41.61;;
66747;Laerm;53658;50.742;10.864;2023-07-24T04:40:07;39.84;37.32;41.53;;
66747;Laerm;53658;50.742;10.864;2023-07-24T04:42:33;39.85;37.32;41.61;;
66747;Laerm;53658;50.742;10.864;2023-07-24T04:44:59;39.90;37.70;41.89;;
66747;Laerm;53658;50.742;10.864;2023-07-24T04:47:25;39.95;37.70;41.75;;
66747;Laerm;53658;50.742;10.864;2023-07-24T04:49:51;39.98;38.05;41.61;;
66747;Laerm;53658;50.742;10.864;2023-07-24T04:52:17;40.07;37.88;41.61;;
66747;Laerm;53658;50.742;10.864;2023-07-24T04:54:42;40.14;38.21;41.89;;
66747;Laerm;53658;50.742;10.864;2023-07-24T04:57:08;40.16;38.37;41.96;;
66747;Laerm;53658;50.742;10.864;2023-07-24T04:59:34;40.20;38.05;41.89;;
66747;Laerm;53658;50.742;10.864;2023-07-24T05:02:00;40.23;38.05;41.75;;
66747;Laerm;53658;50.742;10.864;2023-07-24T05:04:26;40.26;38.21;42.09;;
66747;Laerm;53658;50.742;10.864;2023-07-24T05:06:52;40.31;38.37;41.75;;
66747;Laerm;53658;50.742;10.864;2023-07-24T05:09:18;40.36;38.21;42.03;;
66747;Laerm;53658;50.742;10.864;2023-07-24T05:11:44;40.38;38.37;42.03;;
66747;Laerm;53658;50.742;10.864;2023-07-24T05:14:10;40.43;38.52;42.09;;
66747;Laerm;53658;50.742;10.864;2023-07-24T05:16:37;40.42;38.52;42.53;;
66747;Laerm;53658;50.742;10.864;2023-07-24T05:19:02;40.41;38.05;41.96;;
66747;Laerm;53658;50.742;10.864;2023-07-24T05:21:28;40.38;38.21;42.16;;
66747;Laerm;53658;50.742;10.864;2023-07-24T05:23:54;40.35;38.21;42.03;;
66747;Laerm;53658;50.742;10.864;2023-07-24T05:26:20;40.34;38.05;42.16;;
66747;Laerm;53658;50.742;10.864;2023-07-24T05:28:47;40.36;38.37;42.03;;
66747;Laerm;53658;50.742;10.864;2023-07-24T05:31:13;40.38;38.21;42.53;;
66747;Laerm;53658;50.742;10.864;2023-07-24T05:33:39;40.40;38.52;42.16;;
66747;Laerm;53658;50.742;10.864;2023-07-24T05:36:05;40.40;37.70;42.03;;
66747;Laerm;53658;50.742;10.864;2023-07-24T05:38:31;40.37;38.21;41.96;;
66747;Laerm;53658;50.742;10.864;2023-07-24T05:40:59;40.34;38.21;42.22;;
66747;Laerm;53658;50.742;10.864;2023-07-24T05:43:25;40.31;38.21;41.89;;
66747;Laerm;53658;50.742;10.864;2023-07-24T05:45:52;40.30;37.88;41.89;;
66747;Laerm;53658;50.742;10.864;2023-07-24T05:48:18;40.31;38.05;41.96;;
66747;Laerm;53658;50.742;10.864;2023-07-24T05:50:44;40.31;38.21;42.29;;
66747;Laerm;53658;50.742;10.864;2023-07-24T05:53:10;40.28;37.88;42.03;;
66747;Laerm;53658;50.742;10.864;2023-07-24T05:55:36;40.26;37.88;42.29;;
66747;Laerm;53658;50.742;10.864;2023-07-24T05:58:02;40.19;38.05;42.03;;
66747;Laerm;53658;50.742;10.864;2023-07-24T06:00:28;40.16;37.70;41.96;;
66747;Laerm;53658;50.742;10.864;2023-07-24T06:02:54;40.12;37.70;41.82;;
66747;Laerm;53658;50.742;10.864;2023-07-24T06:05:20;40.11;37.70;42.03;;
66747;Laerm;53658;50.742;10.864;2023-07-24T06:07:46;40.11;37.70;42.09;;
66747;Laerm;53658;50.742;10.864;2023-07-24T06:10:13;40.02;37.52;41.89;;
66747;Laerm;53658;50.742;10.864;2023-07-24T06:12:39;39.91;37.12;41.75;;
66747;Laerm;53658;50.742;10.864;2023-07-24T06:15:06;39.77;36.20;41.68;;
66747;Laerm;53658;50.742;10.864;2023-07-24T06:17:33;39.65;36.45;41.53;;
66747;Laerm;53658;50.742;10.864;2023-07-24T06:19:59;39.59;36.20;41.68;;
66747;Laerm;53658;50.742;10.864;2023-07-24T06:22:25;39.54;36.20;41.61;;
66747;Laerm;53658;50.742;10.864;2023-07-24T06:24:50;39.48;36.69;41.61;;
66747;Laerm;53658;50.742;10.864;2023-07-24T06:27:16;39.34;36.45;41.30;;
66747;Laerm;53658;50.742;10.864;2023-07-24T06:29:42;39.17;35.36;41.30;;
66747;Laerm;53658;50.742;10.864;2023-07-24T06:32:08;39.06;35.04;41.30;;
66747;Laerm;53658;50.742;10.864;2023-07-24T06:34:34;39.03;35.04;41.38;;
66747;Laerm;53658;50.742;10.864;2023-07-24T06:37:00;38.91;33.90;45.86;;
66747;Laerm;53658;50.742;10.864;2023-07-24T06:39:26;38.86;35.36;41.38;;
66747;Laerm;53658;50.742;10.864;2023-07-24T06:41:54;38.81;35.36;41.22;;
66747;Laerm;53658;50.742;10.864;2023-07-24T06:44:21;38.84;35.31;41.30;;
66747;Laerm;53658;50.742;10.864;2023-07-24T06:46:47;38.81;35.36;41.14;;
66747;Laerm;53658;50.742;10.864;2023-07-24T06:49:13;38.87;35.36;41.30;;
66747;Laerm;53658;50.742;10.864;2023-07-24T06:51:39;38.85;35.66;41.30;;
66747;Laerm;53658;50.742;10.864;2023-07-24T06:54:05;38.82;35.04;41.46;;
66747;Laerm;53658;50.742;10.864;2023-07-24T06:56:31;38.98;34.69;42.35;;
66747;Laerm;53658;50.742;10.864;2023-07-24T06:58:59;38.80;35.04;41.14;;
66747;Laerm;53658;50.742;10.864;2023-07-24T07:01:25;38.85;35.36;41.14;;
66747;Laerm;53658;50.742;10.864;2023-07-24T07:03:50;38.86;35.04;41.22;;
66747;Laerm;53658;50.742;10.864;2023-07-24T07:06:16;38.82;35.04;41.61;;
66747;Laerm;53658;50.742;10.864;2023-07-24T07:08:42;38.85;35.36;41.14;;
66747;Laerm;53658;50.742;10.864;2023-07-24T07:11:08;38.82;35.36;41.14;;
66747;Laerm;53658;50.742;10.864;2023-07-24T07:13:34;38.91;35.66;41.33;;
66747;Laerm;53658;50.742;10.864;2023-07-24T07:16:00;38.88;35.04;41.30;;
66747;Laerm;53658;50.742;10.864;2023-07-24T07:18:26;38.81;35.04;41.22;;
66747;Laerm;53658;50.742;10.864;2023-07-24T07:20:53;38.79;35.04;41.38;;
66747;Laerm;53658;50.742;10.864;2023-07-24T07:23:21;38.80;35.01;41.38;;
66747;Laerm;53658;50.742;10.864;2023-07-24T07:25:46;38.86;35.36;41.38;;
66747;Laerm;53658;50.742;10.864;2023-07-24T07:28:16;38.85;34.69;41.82;;
66747;Laerm;53658;50.742;10.864;2023-07-24T07:30:43;38.75;34.69;41.06;;
66747;Laerm;53658;50.742;10.864;2023-07-24T07:33:09;38.83;35.04;45.27;;
66747;Laerm;53658;50.742;10.864;2023-07-24T07:35:36;38.62;34.69;41.38;;
66747;Laerm;53658;50.742;10.864;2023-07-24T07:38:03;38.72;34.31;43.90;;
66747;Laerm;53658;50.742;10.864;2023-07-24T07:40:29;38.60;34.69;40.98;;
66747;Laerm;53658;50.742;10.864;2023-07-24T07:42:56;38.60;34.31;41.14;;
66747;Laerm;53658;50.742;10.864;2023-07-24T07:45:23;38.52;33.90;40.80;;
66747;Laerm;53658;50.742;10.864;2023-07-24T07:47:49;38.48;33.44;41.11;;
66747;Laerm;53658;50.742;10.864;2023-07-24T07:50:15;38.45;34.69;40.98;;
66747;Laerm;53658;50.742;10.864;2023-07-24T07:52:41;38.43;33.44;40.71;;
66747;Laerm;53658;50.742;10.864;2023-07-24T07:55:08;38.38;34.69;41.38;;
66747;Laerm;53658;50.742;10.864;2023-07-24T07:57:35;38.41;33.90;41.75;;
66747;Laerm;53658;50.742;10.864;2023-07-24T08:00:03;38.39;33.90;41.61;;
66747;Laerm;53658;50.742;10.864;2023-07-24T08:02:31;38.41;33.90;42.53;;
66747;Laerm;53658;50.742;10.864;2023-07-24T08:04:58;38.36;34.31;40.89;;
66747;Laerm;53658;50.742;10.864;2023-07-24T08:07:24;38.39;32.35;40.89;;
66747;Laerm;53658;50.742;10.864;2023-07-24T08:09:50;38.24;33.90;40.98;;
66747;Laerm;53658;50.742;10.864;2023-07-24T08:12:16;38.19;33.44;40.98;;
66747;Laerm;53658;50.742;10.864;2023-07-24T08:14:42;38.19;33.90;42.42;;
66747;Laerm;53658;50.742;10.864;2023-07-24T08:17:08;38.24;32.93;41.14;;
66747;Laerm;53658;50.742;10.864;2023-07-24T08:19:34;38.34;33.44;40.89;;
66747;Laerm;53658;50.742;10.864;2023-07-24T08:22:00;38.44;34.31;44.15;;
66747;Laerm;53658;50.742;10.864;2023-07-24T08:24:26;38.40;34.31;41.68;;
66747;Laerm;53658;50.742;10.864;2023-07-24T08:26:52;38.42;32.93;41.30;;
66747;Laerm;53658;50.742;10.864;2023-07-24T08:29:17;38.41;33.44;41.06;;
66747;Laerm;53658;50.742;10.864;2023-07-24T08:31:43;38.47;32.93;41.14;;
66747;Laerm;53658;50.742;10.864;2023-07-24T08:34:10;38.33;33.97;40.98;;
66747;Laerm;53658;50.742;10.864;2023-07-24T08:36:36;38.35;34.31;41.53;;
66747;Laerm;53658;50.742;10.864;2023-07-24T08:39:03;38.40;34.31;41.22;;
66747;Laerm;53658;50.742;10.864;2023-07-24T08:41:29;38.40;34.69;41.06;;
66747;Laerm;53658;50.742;10.864;2023-07-24T08:43:55;38.36;33.90;41.06;;
66747;Laerm;53658;50.742;10.864;2023-07-24T08:46:22;38.66;33.90;48.37;;
66747;Laerm;53658;50.742;10.864;2023-07-24T08:48:48;38.54;33.90;45.01;;
66747;Laerm;53658;50.742;10.864;2023-07-24T08:51:15;38.37;34.31;41.14;;
66747;Laerm;53658;50.742;10.864;2023-07-24T08:53:50;38.35;34.34;40.98;;
66747;Laerm;53658;50.742;10.864;2023-07-24T08:56:16;38.42;34.69;41.14;;
66747;Laerm;53658;50.742;10.864;2023-07-24T08:58:42;38.36;33.90;41.30;;
66747;Laerm;53658;50.742;10.864;2023-07-24T09:01:08;38.34;34.31;41.06;;
66747;Laerm;53658;50.742;10.864;2023-07-24T09:03:35;38.37;34.31;41.53;;
66747;Laerm;53658;50.742;10.864;2023-07-24T09:06:02;39.00;33.90;52.34;;
66747;Laerm;53658;50.742;10.864;2023-07-24T09:08:35;38.59;32.93;51.13;;
66747;Laerm;53658;50.742;10.864;2023-07-24T09:11:03;38.49;33.90;43.68;;
66747;Laerm;53658;50.742;10.864;2023-07-24T09:13:29;38.64;33.44;43.94;;
66747;Laerm;53658;50.742;10.864;2023-07-24T09:15:56;38.37;34.31;42.35;;
66747;Laerm;53658;50.742;10.864;2023-07-24T09:18:22;38.72;33.44;45.36;;
66747;Laerm;53658;50.742;10.864;2023-07-24T09:20:49;39.16;32.93;54.41;;
66747;Laerm;53658;50.742;10.864;2023-07-24T09:23:15;39.84;34.69;59.51;;
66747;Laerm;53658;50.742;10.864;2023-07-24T09:25:43;38.89;33.90;44.62;;
66747;Laerm;53658;50.742;10.864;2023-07-24T09:28:14;38.38;33.90;42.88;;
66747;Laerm;53658;50.742;10.864;2023-07-24T09:30:41;38.73;33.90;44.15;;
66747;Laerm;53658;50.742;10.864;2023-07-24T09:33:08;38.86;33.90;46.10;;
66747;Laerm;53658;50.742;10.864;2023-07-24T09:35:34;38.36;33.90;41.41;;
66747;Laerm;53658;50.742;10.864;2023-07-24T09:38:11;38.61;34.69;44.39;;
66747;Laerm;53658;50.742;10.864;2023-07-24T09:40:41;38.51;33.90;47.02;;
66747;Laerm;53658;50.742;10.864;2023-07-24T09:43:21;38.32;33.44;42.71;;
66747;Laerm;53658;50.742;10.864;2023-07-24T09:45:49;38.24;33.90;40.89;;
66747;Laerm;53658;50.742;10.864;2023-07-24T09:48:16;38.94;33.90;47.98;;
66747;Laerm;53658;50.742;10.864;2023-07-24T09:50:45;38.69;33.44;48.21;;
66747;Laerm;53658;50.742;10.864;2023-07-24T09:53:49;38.22;33.90;43.19;;
66747;Laerm;53658;50.742;10.864;2023-07-24T09:56:20;38.78;33.44;48.54;;
66747;Laerm;53658;50.742;10.864;2023-07-24T09:58:47;38.09;33.44;42.41;;
66747;Laerm;53658;50.742;10.864;2023-07-24T10:01:15;38.21;32.35;41.41;;
66747;Laerm;53658;50.742;10.864;2023-07-24T10:03:49;38.39;33.44;44.19;;
66747;Laerm;53658;50.742;10.864;2023-07-24T10:06:16;38.19;33.44;41.68;;
66747;Laerm;53658;50.742;10.864;2023-07-24T10:08:43;38.28;32.35;43.63;;
66747;Laerm;53658;50.742;10.864;2023-07-24T10:11:12;38.89;33.90;50.50;;
66747;Laerm;53658;50.742;10.864;2023-07-24T10:13:40;38.46;33.44;44.23;;
66747;Laerm;53658;50.742;10.864;2023-07-24T10:16:06;38.13;32.35;42.22;;
66747;Laerm;53658;50.742;10.864;2023-07-24T10:18:34;38.48;32.93;44.73;;
66747;Laerm;53658;50.742;10.864;2023-07-24T10:21:04;39.38;33.44;54.45;;
66747;Laerm;53658;50.742;10.864;2023-07-24T10:23:30;38.45;32.93;43.24;;
66747;Laerm;53658;50.742;10.864;2023-07-24T10:26:05;41.94;33.44;60.73;;
66747;Laerm;53658;50.742;10.864;2023-07-24T10:28:39;38.13;33.44;43.14;;
66747;Laerm;53658;50.742;10.864;2023-07-24T10:31:28;38.48;33.44;43.72;;
66747;Laerm;53658;50.742;10.864;2023-07-24T10:33:54;38.35;33.44;46.07;;
66747;Laerm;53658;50.742;10.864;2023-07-24T10:36:22;39.38;34.31;48.20;;
66747;Laerm;53658;50.742;10.864;2023-07-24T10:38:55;40.25;34.31;56.12;;
66747;Laerm;53658;50.742;10.864;2023-07-24T10:41:23;40.87;33.90;56.63;;
66747;Laerm;53658;50.742;10.864;2023-07-24T10:43:59;39.68;34.31;50.43;;
66747;Laerm;53658;50.742;10.864;2023-07-24T10:46:36;38.92;32.93;51.87;;
66747;Laerm;53658;50.742;10.864;2023-07-24T10:49:03;38.86;33.90;53.98;;
66747;Laerm;53658;50.742;10.864;2023-07-24T10:51:30;38.60;32.35;49.85;;
66747;Laerm;53658;50.742;10.864;2023-07-24T10:53:59;38.18;33.44;42.22;;
66747;Laerm;53658;50.742;10.864;2023-07-24T10:56:26;38.23;33.90;44.07;;
66747;Laerm;53658;50.742;10.864;2023-07-24T10:58:52;38.16;32.93;41.89;;
66747;Laerm;53658;50.742;10.864;2023-07-24T11:01:19;40.05;33.90;52.95;;
66747;Laerm;53658;50.742;10.864;2023-07-24T11:03:46;38.51;33.44;45.51;;
66747;Laerm;53658;50.742;10.864;2023-07-24T11:06:21;38.25;32.35;43.29;;
66747;Laerm;53658;50.742;10.864;2023-07-24T11:08:54;39.33;32.35;51.63;;
66747;Laerm;53658;50.742;10.864;2023-07-24T11:11:35;39.64;33.90;58.57;;
66747;Laerm;53658;50.742;10.864;2023-07-24T11:14:02;38.37;33.90;44.23;;
66747;Laerm;53658;50.742;10.864;2023-07-24T11:16:29;38.49;32.93;44.76;;
66747;Laerm;53658;50.742;10.864;2023-07-24T11:18:56;38.31;32.93;44.15;;
66747;Laerm;53658;50.742;10.864;2023-07-24T11:21:23;38.27;32.35;43.46;;
66747;Laerm;53658;50.742;10.864;2023-07-24T11:23:52;38.54;33.44;47.55;;
66747;Laerm;53658;50.742;10.864;2023-07-24T11:26:23;38.52;32.93;48.81;;
66747;Laerm;53658;50.742;10.864;2023-07-24T11:28:50;38.19;33.44;42.76;;
66747;Laerm;53658;50.742;10.864;2023-07-24T11:31:17;38.88;34.31;53.37;;
66747;Laerm;53658;50.742;10.864;2023-07-24T11:33:50;42.03;33.90;61.20;;
66747;Laerm;53658;50.742;10.864;2023-07-24T11:36:17;38.66;32.93;55.39;;
66747;Laerm;53658;50.742;10.864;2023-07-24T11:38:47;38.05;33.44;42.03;;
66747;Laerm;53658;50.742;10.864;2023-07-24T11:41:16;37.97;32.35;42.65;;
66747;Laerm;53658;50.742;10.864;2023-07-24T11:43:47;37.99;33.09;41.30;;
66747;Laerm;53658;50.742;10.864;2023-07-24T11:46:22;38.90;32.93;45.04;;
66747;Laerm;53658;50.742;10.864;2023-07-24T11:48:49;38.08;32.93;42.03;;
66747;Laerm;53658;50.742;10.864;2023-07-24T11:51:19;38.95;32.35;50.61;;
66747;Laerm;53658;50.742;10.864;2023-07-24T11:53:46;38.41;32.35;44.69;;
66747;Laerm;53658;50.742;10.864;2023-07-24T11:56:14;40.69;33.90;56.18;;
66747;Laerm;53658;50.742;10.864;2023-07-24T11:58:41;41.42;32.35;59.81;;
66747;Laerm;53658;50.742;10.864;2023-07-24T12:01:07;38.21;33.44;44.69;;
66747;Laerm;53658;50.742;10.864;2023-07-24T12:03:33;38.14;32.35;43.81;;
66747;Laerm;53658;50.742;10.864;2023-07-24T12:05:59;37.97;31.68;43.39;;
66747;Laerm;53658;50.742;10.864;2023-07-24T12:08:35;38.96;32.93;56.85;;
66747;Laerm;53658;50.742;10.864;2023-07-24T12:11:02;38.05;32.35;42.88;;
66747;Laerm;53658;50.742;10.864;2023-07-24T12:13:28;38.02;33.44;43.72;;
66747;Laerm;53658;50.742;10.864;2023-07-24T12:15:57;38.19;33.44;44.01;;
66747;Laerm;53658;50.742;10.864;2023-07-24T12:18:23;38.32;32.93;44.35;;
66747;Laerm;53658;50.742;10.864;2023-07-24T12:20:49;38.66;32.35;48.03;;
66747;Laerm;53658;50.742;10.864;2023-07-24T12:23:15;39.57;32.93;48.23;;
66747;Laerm;53658;50.742;10.864;2023-07-24T12:25:42;38.43;32.93;53.83;;
66747;Laerm;53658;50.742;10.864;2023-07-24T12:28:08;38.08;32.93;43.29;;
66747;Laerm;53658;50.742;10.864;2023-07-24T12:30:34;39.75;31.68;51.21;;
66747;Laerm;53658;50.742;10.864;2023-07-24T12:33:00;37.89;33.44;41.38;;
66747;Laerm;53658;50.742;10.864;2023-07-24T12:35:26;37.98;32.35;41.89;;
66747;Laerm;53658;50.742;10.864;2023-07-24T12:37:52;37.95;32.93;40.80;;
66747;Laerm;53658;50.742;10.864;2023-07-24T12:40:18;37.79;32.35;41.06;;
66747;Laerm;53658;50.742;10.864;2023-07-24T12:42:44;37.83;31.68;40.62;;
66747;Laerm;53658;50.742;10.864;2023-07-24T12:45:10;38.51;32.93;46.28;;
66747;Laerm;53658;50.742;10.864;2023-07-24T12:47:36;39.49;32.93;50.61;;
66747;Laerm;53658;50.742;10.864;2023-07-24T12:50:02;39.79;31.68;53.01;;
66747;Laerm;53658;50.742;10.864;2023-07-24T12:52:29;42.47;33.90;57.20;;
66747;Laerm;53658;50.742;10.864;2023-07-24T12:54:56;38.63;30.89;50.42;;
66747;Laerm;53658;50.742;10.864;2023-07-24T12:57:22;38.59;32.93;46.55;;
66747;Laerm;53658;50.742;10.864;2023-07-24T12:59:48;37.87;31.68;44.19;;
66747;Laerm;53658;50.742;10.864;2023-07-24T13:02:14;37.80;32.35;42.53;;
66747;Laerm;53658;50.742;10.864;2023-07-24T13:04:40;37.86;31.68;43.19;;
66747;Laerm;53658;50.742;10.864;2023-07-24T13:07:06;39.37;32.35;54.43;;
66747;Laerm;53658;50.742;10.864;2023-07-24T13:09:32;37.78;32.93;43.04;;
66747;Laerm;53658;50.742;10.864;2023-07-24T13:11:58;37.52;30.89;40.98;;
66747;Laerm;53658;50.742;10.864;2023-07-24T13:14:24;38.62;31.68;46.95;;
66747;Laerm;53658;50.742;10.864;2023-07-24T13:16:50;37.76;32.00;43.39;;
66747;Laerm;53658;50.742;10.864;2023-07-24T13:19:16;38.12;29.92;44.62;;
66747;Laerm;53658;50.742;10.864;2023-07-24T13:21:42;37.43;30.89;43.04;;
66747;Laerm;53658;50.742;10.864;2023-07-24T13:24:11;37.65;31.68;42.79;;
66747;Laerm;53658;50.742;10.864;2023-07-24T13:26:37;38.31;30.89;49.69;;
66747;Laerm;53658;50.742;10.864;2023-07-24T13:29:03;38.24;32.35;44.87;;
66747;Laerm;53658;50.742;10.864;2023-07-24T13:31:31;39.78;32.93;55.39;;
66747;Laerm;53658;50.742;10.864;2023-07-24T13:33:57;38.45;32.35;49.45;;
66747;Laerm;53658;50.742;10.864;2023-07-24T13:36:23;38.72;32.93;49.69;;